sensor_id;sensor_type;location;lat;lon;timestamp;temperature;humidity
16408;DHT22;8313;49.894;8.084;2023-07-30T00:01:41;20.20;99.90
16408;DHT22;8313;49.894;8.084;2023-07-30T00:04:07;20.10;99.90
16408;DHT22;8313;49.894;8.084;2023-07-30T00:06:33;20.10;99.90
16408;DHT22;8313;49.894;8.084;2023-07-30T00:08:59;20.20;99.90
16408;DHT22;8313;49.894;8.084;2023-07-30T00:11:24;20.10;99.90
16408;DHT22;8313;49.894;8.084;2023-07-30T00:13:50;20.20;99.90
16408;DHT22;8313;49.894;8.084;2023-07-30T00:16:15;20.10;99.90
16408;DHT22;8313;49.894;8.084;2023-07-30T00:18:41;20.00;99.90
16408;DHT22;8313;49.894;8.084;2023-07-30T00:21:07;20.10;99.90
16408;DHT22;8313;49.894;8.084;2023-07-30T00:23:32;20.00;99.90
16408;DHT22;8313;49.894;8.084;2023-07-30T00:25:58;20.10;99.90
16408;DHT22;8313;49.894;8.084;2023-07-30T00:28:24;20.00;99.90
16408;DHT22;8313;49.894;8.084;2023-07-30T00:30:49;20.00;99.90
16408;DHT22;8313;49.894;8.084;2023-07-30T00:33:15;20.00;99.90
16408;DHT22;8313;49.894;8.084;2023-07-30T00:35:41;20.00;99.90
16408;DHT22;8313;49.894;8.084;2023-07-30T00:38:07;20.00;99.90
16408;DHT22;8313;49.894;8.084;2023-07-30T00:40:33;20.00;99.90
16408;DHT22;8313;49.894;8.084;2023-07-30T00:43:04;20.00;99.90
16408;DHT22;8313;49.894;8.084;2023-07-30T00:45:30;19.90;99.90
16408;DHT22;8313;49.894;8.084;2023-07-30T00:47:55;20.00;99.90
16408;DHT22;8313;49.894;8.084;2023-07-30T00:50:21;19.90;99.90
16408;DHT22;8313;49.894;8.084;2023-07-30T00:52:47;20.00;99.90
16408;DHT22;8313;49.894;8.084;2023-07-30T00:55:14;20.00;99.90
16408;DHT22;8313;49.894;8.084;2023-07-30T00:57:41;20.00;99.90
16408;DHT22;8313;49.894;8.084;2023-07-30T01:00:08;19.90;99.90
16408;DHT22;8313;49.894;8.084;2023-07-30T01:02:36;19.90;99.90
16408;DHT22;8313;49.894;8.084;2023-07-30T01:05:02;19.90;99.90
16408;DHT22;8313;49.894;8.084;2023-07-30T01:07:30;19.90;99.90
16408;DHT22;8313;49.894;8.084;2023-07-30T01:09:56;19.90;99.90
16408;DHT22;8313;49.894;8.084;2023-07-30T01:12:23;19.90;99.90
16408;DHT22;8313;49.894;8.084;2023-07-30T01:14:49;19.90;99.90
16408;DHT22;8313;49.894;8.084;2023-07-30T01:17:15;19.90;99.90
16408;DHT22;8313;49.894;8.084;2023-07-30T01:19:42;19.90;99.90
16408;DHT22;8313;49.894;8.084;2023-07-30T01:22:09;19.80;99.90
16408;DHT22;8313;49.894;8.084;2023-07-30T01:24:35;19.70;99.90
16408;DHT22;8313;49.894;8.084;2023-07-30T01:27:08;19.80;99.90
16408;DHT22;8313;49.894;8.084;2023-07-30T01:29:41;19.70;99.90
16408;DHT22;8313;49.894;8.084;2023-07-30T01:32:09;19.80;99.90
16408;DHT22;8313;49.894;8.084;2023-07-30T01:34:37;19.80;99.90
16408;DHT22;8313;49.894;8.084;2023-07-30T01:37:04;19.80;99.90
16408;DHT22;8313;49.894;8.084;2023-07-30T01:39:32;19.80;99.90
16408;DHT22;8313;49.894;8.084;2023-07-30T01:41:58;19.80;99.90
16408;DHT22;8313;49.894;8.084;2023-07-30T01:44:24;19.80;99.90
16408;DHT22;8313;49.894;8.084;2023-07-30T01:46:49;19.70;99.90
16408;DHT22;8313;49.894;8.084;2023-07-30T01:49:15;19.70;99.90
16408;DHT22;8313;49.894;8.084;2023-07-30T01:51:40;19.70;99.90
16408;DHT22;8313;49.894;8.084;2023-07-30T01:54:06;19.70;99.90
16408;DHT22;8313;49.894;8.084;2023-07-30T01:56:32;19.70;99.90
16408;DHT22;8313;49.894;8.084;2023-07-30T01:58:57;19.80;99.90
16408;DHT22;8313;49.894;8.084;2023-07-30T02:01:23;19.80;99.90
16408;DHT22;8313;49.894;8.084;2023-07-30T02:03:49;19.80;99.90
16408;DHT22;8313;49.894;8.084;2023-07-30T02:06:14;19.70;99.90
16408;DHT22;8313;49.894;8.084;2023-07-30T02:08:40;19.80;99.90
16408;DHT22;8313;49.894;8.084;2023-07-30T02:11:05;19.90;99.90
16408;DHT22;8313;49.894;8.084;2023-07-30T02:13:31;19.90;99.90
16408;DHT22;8313;49.894;8.084;2023-07-30T02:15:57;20.00;99.90
16408;DHT22;8313;49.894;8.084;2023-07-30T02:18:23;19.90;99.90
16408;DHT22;8313;49.894;8.084;2023-07-30T02:20:49;19.90;99.90
16408;DHT22;8313;49.894;8.084;2023-07-30T02:23:15;19.90;99.90
16408;DHT22;8313;49.894;8.084;2023-07-30T02:25:43;19.80;99.90
16408;DHT22;8313;49.894;8.084;2023-07-30T02:28:09;19.80;99.90
16408;DHT22;8313;49.894;8.084;2023-07-30T02:30:36;19.80;99.90
16408;DHT22;8313;49.894;8.084;2023-07-30T02:33:02;19.80;99.90
16408;DHT22;8313;49.894;8.084;2023-07-30T02:35:27;19.70;99.90
16408;DHT22;8313;49.894;8.084;2023-07-30T02:37:53;19.80;99.90
16408;DHT22;8313;49.894;8.084;2023-07-30T02:40:18;19.80;99.90
16408;DHT22;8313;49.894;8.084;2023-07-30T02:42:44;19.80;99.90
16408;DHT22;8313;49.894;8.084;2023-07-30T02:45:10;19.70;99.90
16408;DHT22;8313;49.894;8.084;2023-07-30T02:47:36;19.70;99.90
16408;DHT22;8313;49.894;8.084;2023-07-30T02:50:03;19.70;99.90
16408;DHT22;8313;49.894;8.084;2023-07-30T02:52:29;19.70;99.90
16408;DHT22;8313;49.894;8.084;2023-07-30T02:54:55;19.80;99.90
16408;DHT22;8313;49.894;8.084;2023-07-30T02:57:20;19.80;99.90
16408;DHT22;8313;49.894;8.084;2023-07-30T02:59:46;19.70;99.90
16408;DHT22;8313;49.894;8.084;2023-07-30T03:02:12;19.50;99.90
16408;DHT22;8313;49.894;8.084;2023-07-30T03:04:37;19.50;99.90
16408;DHT22;8313;49.894;8.084;2023-07-30T03:07:03;19.50;99.90
16408;DHT22;8313;49.894;8.084;2023-07-30T03:09:29;19.50;99.90
16408;DHT22;8313;49.894;8.084;2023-07-30T03:11:55;19.40;99.90
16408;DHT22;8313;49.894;8.084;2023-07-30T03:14:21;19.50;99.90
16408;DHT22;8313;49.894;8.084;2023-07-30T03:16:47;19.60;99.90
16408;DHT22;8313;49.894;8.084;2023-07-30T03:19:13;19.70;99.90
16408;DHT22;8313;49.894;8.084;2023-07-30T03:21:39;19.70;99.90
16408;DHT22;8313;49.894;8.084;2023-07-30T03:24:05;19.70;99.90
16408;DHT22;8313;49.894;8.084;2023-07-30T03:26:31;19.50;99.90
16408;DHT22;8313;49.894;8.084;2023-07-30T03:28:56;19.40;99.90
16408;DHT22;8313;49.894;8.084;2023-07-30T03:31:22;19.40;99.90
16408;DHT22;8313;49.894;8.084;2023-07-30T03:33:47;19.30;99.90
16408;DHT22;8313;49.894;8.084;2023-07-30T03:36:14;19.30;99.90
16408;DHT22;8313;49.894;8.084;2023-07-30T03:38:40;19.30;99.90
16408;DHT22;8313;49.894;8.084;2023-07-30T03:41:06;19.30;99.90
16408;DHT22;8313;49.894;8.084;2023-07-30T03:43:33;19.30;99.90
16408;DHT22;8313;49.894;8.084;2023-07-30T03:45:58;19.30;99.90
16408;DHT22;8313;49.894;8.084;2023-07-30T03:48:24;19.40;99.90
16408;DHT22;8313;49.894;8.084;2023-07-30T03:50:50;19.50;99.90
16408;DHT22;8313;49.894;8.084;2023-07-30T03:53:15;19.50;99.90
16408;DHT22;8313;49.894;8.084;2023-07-30T03:55:42;19.60;99.90
16408;DHT22;8313;49.894;8.084;2023-07-30T03:58:07;19.60;99.90
16408;DHT22;8313;49.894;8.084;2023-07-30T04:00:33;19.60;99.90
16408;DHT22;8313;49.894;8.084;2023-07-30T04:02:59;19.70;99.90
16408;DHT22;8313;49.894;8.084;2023-07-30T04:05:24;19.70;99.90
16408;DHT22;8313;49.894;8.084;2023-07-30T04:07:50;19.70;99.90
16408;DHT22;8313;49.894;8.084;2023-07-30T04:10:16;19.70;99.90
16408;DHT22;8313;49.894;8.084;2023-07-30T04:12:42;19.80;99.90
16408;DHT22;8313;49.894;8.084;2023-07-30T04:15:07;19.80;99.90
16408;DHT22;8313;49.894;8.084;2023-07-30T04:17:35;19.80;99.90
16408;DHT22;8313;49.894;8.084;2023-07-30T04:20:04;19.80;99.90
16408;DHT22;8313;49.894;8.084;2023-07-30T04:22:30;19.80;99.90
16408;DHT22;8313;49.894;8.084;2023-07-30T04:24:56;19.80;99.90
16408;DHT22;8313;49.894;8.084;2023-07-30T04:27:22;19.80;99.90
16408;DHT22;8313;49.894;8.084;2023-07-30T04:29:47;19.80;99.90
16408;DHT22;8313;49.894;8.084;2023-07-30T04:32:13;19.80;99.90
16408;DHT22;8313;49.894;8.084;2023-07-30T04:34:39;19.80;99.90
16408;DHT22;8313;49.894;8.084;2023-07-30T04:37:06;19.80;99.90
16408;DHT22;8313;49.894;8.084;2023-07-30T04:39:34;19.80;99.90
16408;DHT22;8313;49.894;8.084;2023-07-30T04:42:00;19.80;99.90
16408;DHT22;8313;49.894;8.084;2023-07-30T04:44:26;19.80;99.90
16408;DHT22;8313;49.894;8.084;2023-07-30T04:46:54;19.90;99.90
16408;DHT22;8313;49.894;8.084;2023-07-30T04:49:19;19.90;99.90
16408;DHT22;8313;49.894;8.084;2023-07-30T04:51:46;19.90;99.90
16408;DHT22;8313;49.894;8.084;2023-07-30T04:54:12;19.90;99.90
16408;DHT22;8313;49.894;8.084;2023-07-30T04:56:38;20.00;99.90
16408;DHT22;8313;49.894;8.084;2023-07-30T04:59:03;20.00;99.90
16408;DHT22;8313;49.894;8.084;2023-07-30T05:01:29;20.00;99.90
16408;DHT22;8313;49.894;8.084;2023-07-30T05:03:56;19.90;99.90
16408;DHT22;8313;49.894;8.084;2023-07-30T05:06:22;20.00;99.90
16408;DHT22;8313;49.894;8.084;2023-07-30T05:08:48;20.00;99.90
16408;DHT22;8313;49.894;8.084;2023-07-30T05:11:14;20.00;99.90
16408;DHT22;8313;49.894;8.084;2023-07-30T05:13:40;20.00;99.90
16408;DHT22;8313;49.894;8.084;2023-07-30T05:16:06;20.00;99.90
16408;DHT22;8313;49.894;8.084;2023-07-30T05:18:31;20.10;99.90
16408;DHT22;8313;49.894;8.084;2023-07-30T05:20:57;20.10;99.90
16408;DHT22;8313;49.894;8.084;2023-07-30T05:23:23;20.10;99.90
16408;DHT22;8313;49.894;8.084;2023-07-30T05:25:48;20.10;99.90
16408;DHT22;8313;49.894;8.084;2023-07-30T05:28:14;20.10;99.90
16408;DHT22;8313;49.894;8.084;2023-07-30T05:30:40;20.00;99.90
16408;DHT22;8313;49.894;8.084;2023-07-30T05:33:05;20.00;99.90
16408;DHT22;8313;49.894;8.084;2023-07-30T05:35:31;19.90;99.90
16408;DHT22;8313;49.894;8.084;2023-07-30T05:37:56;20.00;99.90
16408;DHT22;8313;49.894;8.084;2023-07-30T05:40:22;20.00;99.90
16408;DHT22;8313;49.894;8.084;2023-07-30T05:42:48;20.10;99.90
16408;DHT22;8313;49.894;8.084;2023-07-30T05:45:14;20.10;99.90
16408;DHT22;8313;49.894;8.084;2023-07-30T05:47:40;20.10;99.90
16408;DHT22;8313;49.894;8.084;2023-07-30T05:50:06;20.20;99.90
16408;DHT22;8313;49.894;8.084;2023-07-30T05:52:33;20.20;99.90
16408;DHT22;8313;49.894;8.084;2023-07-30T05:54:58;20.30;99.90
16408;DHT22;8313;49.894;8.084;2023-07-30T05:57:24;20.20;99.90
16408;DHT22;8313;49.894;8.084;2023-07-30T05:59:50;20.20;99.90
16408;DHT22;8313;49.894;8.084;2023-07-30T06:02:16;20.20;99.90
16408;DHT22;8313;49.894;8.084;2023-07-30T06:04:42;20.20;99.90
16408;DHT22;8313;49.894;8.084;2023-07-30T06:07:07;20.10;99.90
16408;DHT22;8313;49.894;8.084;2023-07-30T06:09:33;20.10;99.90
16408;DHT22;8313;49.894;8.084;2023-07-30T06:11:59;20.10;99.90
16408;DHT22;8313;49.894;8.084;2023-07-30T06:14:25;20.20;99.90
16408;DHT22;8313;49.894;8.084;2023-07-30T06:16:51;20.30;99.90
16408;DHT22;8313;49.894;8.084;2023-07-30T06:19:17;20.30;99.90
16408;DHT22;8313;49.894;8.084;2023-07-30T06:21:43;20.30;99.90
16408;DHT22;8313;49.894;8.084;2023-07-30T06:24:08;20.40;99.90
16408;DHT22;8313;49.894;8.084;2023-07-30T06:26:34;20.40;99.90
16408;DHT22;8313;49.894;8.084;2023-07-30T06:29:00;20.40;99.90
16408;DHT22;8313;49.894;8.084;2023-07-30T06:31:25;20.40;99.90
16408;DHT22;8313;49.894;8.084;2023-07-30T06:33:51;20.40;99.90
16408;DHT22;8313;49.894;8.084;2023-07-30T06:36:17;20.40;99.90
16408;DHT22;8313;49.894;8.084;2023-07-30T06:38:42;20.40;99.90
16408;DHT22;8313;49.894;8.084;2023-07-30T06:41:08;20.40;99.90
16408;DHT22;8313;49.894;8.084;2023-07-30T06:43:33;20.40;99.90
16408;DHT22;8313;49.894;8.084;2023-07-30T06:46:00;20.40;99.90
16408;DHT22;8313;49.894;8.084;2023-07-30T06:48:25;20.30;99.90
16408;DHT22;8313;49.894;8.084;2023-07-30T06:50:51;20.20;99.90
16408;DHT22;8313;49.894;8.084;2023-07-30T06:53:17;20.30;99.90
16408;DHT22;8313;49.894;8.084;2023-07-30T06:55:43;20.40;99.90
16408;DHT22;8313;49.894;8.084;2023-07-30T06:58:08;20.40;99.90
16408;DHT22;8313;49.894;8.084;2023-07-30T07:00:34;20.40;99.90
16408;DHT22;8313;49.894;8.084;2023-07-30T07:03:00;20.40;99.90
16408;DHT22;8313;49.894;8.084;2023-07-30T07:05:26;20.50;99.90
16408;DHT22;8313;49.894;8.084;2023-07-30T07:07:51;20.60;99.90
16408;DHT22;8313;49.894;8.084;2023-07-30T07:10:17;20.60;99.90
16408;DHT22;8313;49.894;8.084;2023-07-30T07:12:43;20.60;99.90
16408;DHT22;8313;49.894;8.084;2023-07-30T07:15:08;20.60;99.90
16408;DHT22;8313;49.894;8.084;2023-07-30T07:17:34;20.70;99.90
16408;DHT22;8313;49.894;8.084;2023-07-30T07:20:01;20.70;99.90
16408;DHT22;8313;49.894;8.084;2023-07-30T07:22:26;20.70;99.90
16408;DHT22;8313;49.894;8.084;2023-07-30T07:24:52;20.70;99.90
16408;DHT22;8313;49.894;8.084;2023-07-30T07:27:18;20.80;99.90
16408;DHT22;8313;49.894;8.084;2023-07-30T07:29:44;20.80;99.90
16408;DHT22;8313;49.894;8.084;2023-07-30T07:32:10;20.80;99.90
16408;DHT22;8313;49.894;8.084;2023-07-30T07:34:35;20.90;99.90
16408;DHT22;8313;49.894;8.084;2023-07-30T07:37:01;20.90;99.90
16408;DHT22;8313;49.894;8.084;2023-07-30T07:39:27;20.90;99.90
16408;DHT22;8313;49.894;8.084;2023-07-30T07:41:53;21.00;99.90
16408;DHT22;8313;49.894;8.084;2023-07-30T07:44:18;21.00;99.90
16408;DHT22;8313;49.894;8.084;2023-07-30T07:46:44;21.00;99.90
16408;DHT22;8313;49.894;8.084;2023-07-30T07:49:10;21.10;99.90
16408;DHT22;8313;49.894;8.084;2023-07-30T07:51:35;21.10;99.90
16408;DHT22;8313;49.894;8.084;2023-07-30T07:54:01;21.20;99.90
16408;DHT22;8313;49.894;8.084;2023-07-30T07:56:27;21.30;99.90
16408;DHT22;8313;49.894;8.084;2023-07-30T07:58:52;21.30;99.90
16408;DHT22;8313;49.894;8.084;2023-07-30T08:01:18;21.40;99.90
16408;DHT22;8313;49.894;8.084;2023-07-30T08:03:44;21.40;99.90
16408;DHT22;8313;49.894;8.084;2023-07-30T08:06:09;21.50;99.90
16408;DHT22;8313;49.894;8.084;2023-07-30T08:08:35;21.50;99.90
16408;DHT22;8313;49.894;8.084;2023-07-30T08:11:07;21.50;99.90
16408;DHT22;8313;49.894;8.084;2023-07-30T08:13:34;21.50;99.90
16408;DHT22;8313;49.894;8.084;2023-07-30T08:16:00;21.60;99.90
16408;DHT22;8313;49.894;8.084;2023-07-30T08:18:26;21.60;99.90
16408;DHT22;8313;49.894;8.084;2023-07-30T08:20:52;21.60;99.90
16408;DHT22;8313;49.894;8.084;2023-07-30T08:23:17;21.60;99.90
16408;DHT22;8313;49.894;8.084;2023-07-30T08:25:43;21.60;99.90
16408;DHT22;8313;49.894;8.084;2023-07-30T08:28:09;21.60;99.90
16408;DHT22;8313;49.894;8.084;2023-07-30T08:30:34;21.60;99.90
16408;DHT22;8313;49.894;8.084;2023-07-30T08:33:00;21.50;99.90
16408;DHT22;8313;49.894;8.084;2023-07-30T08:35:26;21.50;99.90
16408;DHT22;8313;49.894;8.084;2023-07-30T08:37:52;21.50;99.90
16408;DHT22;8313;49.894;8.084;2023-07-30T08:40:20;21.50;99.90
16408;DHT22;8313;49.894;8.084;2023-07-30T08:42:46;21.40;99.90
16408;DHT22;8313;49.894;8.084;2023-07-30T08:45:11;21.40;99.90
16408;DHT22;8313;49.894;8.084;2023-07-30T08:47:39;21.40;99.90
16408;DHT22;8313;49.894;8.084;2023-07-30T08:50:06;21.20;99.90
16408;DHT22;8313;49.894;8.084;2023-07-30T08:52:32;20.80;99.90
16408;DHT22;8313;49.894;8.084;2023-07-30T08:55:00;20.40;99.90
16408;DHT22;8313;49.894;8.084;2023-07-30T08:57:29;20.40;99.90
16408;DHT22;8313;49.894;8.084;2023-07-30T09:02:33;20.30;99.90
16408;DHT22;8313;49.894;8.084;2023-07-30T09:05:00;20.30;99.90
16408;DHT22;8313;49.894;8.084;2023-07-30T09:07:27;20.40;99.90
16408;DHT22;8313;49.894;8.084;2023-07-30T09:09:53;20.60;99.90
16408;DHT22;8313;49.894;8.084;2023-07-30T09:12:19;20.70;99.90
16408;DHT22;8313;49.894;8.084;2023-07-30T09:14:50;20.50;99.90
16408;DHT22;8313;49.894;8.084;2023-07-30T09:17:17;20.40;99.90
16408;DHT22;8313;49.894;8.084;2023-07-30T09:19:43;20.30;99.90
16408;DHT22;8313;49.894;8.084;2023-07-30T09:22:09;20.20;99.90
16408;DHT22;8313;49.894;8.084;2023-07-30T09:24:34;20.20;99.90
16408;DHT22;8313;49.894;8.084;2023-07-30T09:27:03;20.20;99.90
16408;DHT22;8313;49.894;8.084;2023-07-30T09:29:29;20.20;99.90
16408;DHT22;8313;49.894;8.084;2023-07-30T09:31:55;20.40;99.90
16408;DHT22;8313;49.894;8.084;2023-07-30T09:34:24;20.40;99.90
16408;DHT22;8313;49.894;8.084;2023-07-30T09:36:54;20.50;99.90
16408;DHT22;8313;49.894;8.084;2023-07-30T09:39:20;20.50;99.90
16408;DHT22;8313;49.894;8.084;2023-07-30T09:41:47;20.50;99.90
16408;DHT22;8313;49.894;8.084;2023-07-30T09:44:13;20.40;99.90
16408;DHT22;8313;49.894;8.084;2023-07-30T09:46:46;20.40;99.90
16408;DHT22;8313;49.894;8.084;2023-07-30T09:49:12;20.40;99.90
16408;DHT22;8313;49.894;8.084;2023-07-30T09:51:38;20.50;99.90
16408;DHT22;8313;49.894;8.084;2023-07-30T09:54:09;20.50;99.90
16408;DHT22;8313;49.894;8.084;2023-07-30T09:56:39;20.30;99.90
16408;DHT22;8313;49.894;8.084;2023-07-30T09:59:08;20.30;99.90
16408;DHT22;8313;49.894;8.084;2023-07-30T10:01:42;20.30;99.90
16408;DHT22;8313;49.894;8.084;2023-07-30T10:04:09;20.30;99.90
16408;DHT22;8313;49.894;8.084;2023-07-30T10:06:45;20.40;99.90
16408;DHT22;8313;49.894;8.084;2023-07-30T10:09:13;20.40;99.90
16408;DHT22;8313;49.894;8.084;2023-07-30T10:11:40;20.50;99.90
16408;DHT22;8313;49.894;8.084;2023-07-30T10:14:07;20.60;99.90
16408;DHT22;8313;49.894;8.084;2023-07-30T10:16:33;20.80;99.90
16408;DHT22;8313;49.894;8.084;2023-07-30T10:18:59;20.70;99.90
16408;DHT22;8313;49.894;8.084;2023-07-30T10:21:26;20.70;99.90
16408;DHT22;8313;49.894;8.084;2023-07-30T10:24:12;20.80;99.90
16408;DHT22;8313;49.894;8.084;2023-07-30T10:26:38;21.00;99.90
16408;DHT22;8313;49.894;8.084;2023-07-30T10:29:14;21.10;99.90
16408;DHT22;8313;49.894;8.084;2023-07-30T10:31:41;21.20;99.90
16408;DHT22;8313;49.894;8.084;2023-07-30T10:34:08;21.10;99.90
16408;DHT22;8313;49.894;8.084;2023-07-30T10:36:42;21.20;99.90
16408;DHT22;8313;49.894;8.084;2023-07-30T10:39:16;21.20;99.90
16408;DHT22;8313;49.894;8.084;2023-07-30T10:42:00;21.30;99.90
16408;DHT22;8313;49.894;8.084;2023-07-30T10:44:28;21.50;99.90
16408;DHT22;8313;49.894;8.084;2023-07-30T10:46:55;21.60;99.90
16408;DHT22;8313;49.894;8.084;2023-07-30T10:49:21;21.60;99.90
16408;DHT22;8313;49.894;8.084;2023-07-30T10:51:48;21.50;99.90
16408;DHT22;8313;49.894;8.084;2023-07-30T10:54:14;21.40;99.90
16408;DHT22;8313;49.894;8.084;2023-07-30T10:56:42;21.30;99.90
16408;DHT22;8313;49.894;8.084;2023-07-30T10:59:08;21.30;99.90
16408;DHT22;8313;49.894;8.084;2023-07-30T11:01:52;21.20;99.90
16408;DHT22;8313;49.894;8.084;2023-07-30T11:04:20;21.20;99.90
16408;DHT22;8313;49.894;8.084;2023-07-30T11:06:50;21.30;99.90
16408;DHT22;8313;49.894;8.084;2023-07-30T11:09:26;21.20;99.90
16408;DHT22;8313;49.894;8.084;2023-07-30T11:11:55;21.20;99.90
16408;DHT22;8313;49.894;8.084;2023-07-30T11:14:23;21.20;99.90
16408;DHT22;8313;49.894;8.084;2023-07-30T11:16:58;21.10;99.90
16408;DHT22;8313;49.894;8.084;2023-07-30T11:19:25;21.00;99.90
16408;DHT22;8313;49.894;8.084;2023-07-30T11:21:52;21.00;99.90
16408;DHT22;8313;49.894;8.084;2023-07-30T11:24:19;20.80;99.90
16408;DHT22;8313;49.894;8.084;2023-07-30T11:26:45;20.90;99.90
16408;DHT22;8313;49.894;8.084;2023-07-30T11:29:15;20.90;99.90
16408;DHT22;8313;49.894;8.084;2023-07-30T11:31:43;20.70;99.90
16408;DHT22;8313;49.894;8.084;2023-07-30T11:34:09;20.70;99.90
16408;DHT22;8313;49.894;8.084;2023-07-30T11:36:35;20.70;99.90
16408;DHT22;8313;49.894;8.084;2023-07-30T11:39:01;20.70;99.90
16408;DHT22;8313;49.894;8.084;2023-07-30T11:41:27;20.60;99.90
16408;DHT22;8313;49.894;8.084;2023-07-30T11:43:54;20.60;99.90
16408;DHT22;8313;49.894;8.084;2023-07-30T11:46:20;20.50;99.90
16408;DHT22;8313;49.894;8.084;2023-07-30T11:48:49;20.60;99.90
16408;DHT22;8313;49.894;8.084;2023-07-30T11:51:27;20.70;99.90
16408;DHT22;8313;49.894;8.084;2023-07-30T11:53:58;20.70;99.90
16408;DHT22;8313;49.894;8.084;2023-07-30T11:56:26;20.70;99.90
16408;DHT22;8313;49.894;8.084;2023-07-30T11:58:58;20.70;99.90
16408;DHT22;8313;49.894;8.084;2023-07-30T12:01:29;20.70;99.90
16408;DHT22;8313;49.894;8.084;2023-07-30T12:03:57;20.80;99.90
16408;DHT22;8313;49.894;8.084;2023-07-30T12:06:23;20.90;99.90
16408;DHT22;8313;49.894;8.084;2023-07-30T12:08:50;21.00;99.90
16408;DHT22;8313;49.894;8.084;2023-07-30T12:11:17;21.10;99.90
16408;DHT22;8313;49.894;8.084;2023-07-30T12:13:44;21.40;99.90
16408;DHT22;8313;49.894;8.084;2023-07-30T12:16:11;21.40;99.90
16408;DHT22;8313;49.894;8.084;2023-07-30T12:18:38;21.50;99.90
16408;DHT22;8313;49.894;8.084;2023-07-30T12:21:04;21.70;99.90
16408;DHT22;8313;49.894;8.084;2023-07-30T12:23:32;21.80;99.90
16408;DHT22;8313;49.894;8.084;2023-07-30T12:25:58;21.90;99.90
16408;DHT22;8313;49.894;8.084;2023-07-30T12:28:23;21.90;99.90
16408;DHT22;8313;49.894;8.084;2023-07-30T12:30:49;22.00;99.90
16408;DHT22;8313;49.894;8.084;2023-07-30T12:33:15;22.10;99.90
16408;DHT22;8313;49.894;8.084;2023-07-30T12:35:40;22.10;99.90
16408;DHT22;8313;49.894;8.084;2023-07-30T12:38:06;22.10;99.90
16408;DHT22;8313;49.894;8.084;2023-07-30T12:40:32;22.00;99.90
16408;DHT22;8313;49.894;8.084;2023-07-30T12:43:02;21.90;99.90
16408;DHT22;8313;49.894;8.084;2023-07-30T12:45:31;21.80;99.90
16408;DHT22;8313;49.894;8.084;2023-07-30T12:47:57;21.70;99.90
16408;DHT22;8313;49.894;8.084;2023-07-30T12:50:23;21.70;99.90
16408;DHT22;8313;49.894;8.084;2023-07-30T12:52:49;21.80;99.90
16408;DHT22;8313;49.894;8.084;2023-07-30T12:55:14;21.90;99.90
16408;DHT22;8313;49.894;8.084;2023-07-30T12:57:40;22.00;99.90
16408;DHT22;8313;49.894;8.084;2023-07-30T13:00:06;22.30;99.90
16408;DHT22;8313;49.894;8.084;2023-07-30T13:02:32;22.40;99.90
16408;DHT22;8313;49.894;8.084;2023-07-30T13:05:01;22.40;99.90
16408;DHT22;8313;49.894;8.084;2023-07-30T13:07:27;22.30;99.90
16408;DHT22;8313;49.894;8.084;2023-07-30T13:10:04;22.20;99.90
16408;DHT22;8313;49.894;8.084;2023-07-30T13:12:29;22.20;99.90
16408;DHT22;8313;49.894;8.084;2023-07-30T13:14:55;22.20;99.90
16408;DHT22;8313;49.894;8.084;2023-07-30T13:17:21;22.20;99.90
16408;DHT22;8313;49.894;8.084;2023-07-30T13:19:47;22.20;99.90
16408;DHT22;8313;49.894;8.084;2023-07-30T13:22:13;22.20;99.90
16408;DHT22;8313;49.894;8.084;2023-07-30T13:24:39;22.10;99.90
16408;DHT22;8313;49.894;8.084;2023-07-30T13:27:05;22.00;99.90
16408;DHT22;8313;49.894;8.084;2023-07-30T13:29:31;22.00;99.90
16408;DHT22;8313;49.894;8.084;2023-07-30T13:31:57;22.00;99.90
16408;DHT22;8313;49.894;8.084;2023-07-30T13:34:22;22.10;99.90
16408;DHT22;8313;49.894;8.084;2023-07-30T13:36:48;22.10;99.90
16408;DHT22;8313;49.894;8.084;2023-07-30T13:39:13;22.10;99.90
16408;DHT22;8313;49.894;8.084;2023-07-30T13:41:39;22.00;99.90
16408;DHT22;8313;49.894;8.084;2023-07-30T13:44:05;22.10;99.90
16408;DHT22;8313;49.894;8.084;2023-07-30T13:46:31;22.20;99.90
16408;DHT22;8313;49.894;8.084;2023-07-30T13:48:57;22.20;99.90
16408;DHT22;8313;49.894;8.084;2023-07-30T13:51:22;22.20;99.90
16408;DHT22;8313;49.894;8.084;2023-07-30T13:53:48;22.10;99.90
16408;DHT22;8313;49.894;8.084;2023-07-30T13:56:14;22.20;99.90
16408;DHT22;8313;49.894;8.084;2023-07-30T13:58:39;22.10;99.90
16408;DHT22;8313;49.894;8.084;2023-07-30T14:01:06;22.20;99.90
16408;DHT22;8313;49.894;8.084;2023-07-30T14:03:34;22.20;99.90
16408;DHT22;8313;49.894;8.084;2023-07-30T14:05:59;22.10;99.90
16408;DHT22;8313;49.894;8.084;2023-07-30T14:08:25;22.20;99.90
16408;DHT22;8313;49.894;8.084;2023-07-30T14:10:51;22.20;99.90
16408;DHT22;8313;49.894;8.084;2023-07-30T14:13:16;22.20;99.90
16408;DHT22;8313;49.894;8.084;2023-07-30T14:15:42;22.20;99.90
16408;DHT22;8313;49.894;8.084;2023-07-30T14:18:09;22.30;99.90
16408;DHT22;8313;49.894;8.084;2023-07-30T14:20:35;22.40;99.90
16408;DHT22;8313;49.894;8.084;2023-07-30T14:23:03;22.50;99.90
16408;DHT22;8313;49.894;8.084;2023-07-30T14:25:29;22.80;99.90
16408;DHT22;8313;49.894;8.084;2023-07-30T14:27:55;22.70;99.90
16408;DHT22;8313;49.894;8.084;2023-07-30T14:30:21;22.60;99.90
16408;DHT22;8313;49.894;8.084;2023-07-30T14:32:46;22.50;99.90
16408;DHT22;8313;49.894;8.084;2023-07-30T14:35:12;22.40;99.90
16408;DHT22;8313;49.894;8.084;2023-07-30T14:37:38;22.40;99.90
16408;DHT22;8313;49.894;8.084;2023-07-30T14:40:04;22.40;99.90
16408;DHT22;8313;49.894;8.084;2023-07-30T14:42:30;22.40;99.90
16408;DHT22;8313;49.894;8.084;2023-07-30T14:44:55;22.40;99.90
16408;DHT22;8313;49.894;8.084;2023-07-30T14:47:21;22.40;99.90
16408;DHT22;8313;49.894;8.084;2023-07-30T14:49:48;22.40;99.90
16408;DHT22;8313;49.894;8.084;2023-07-30T14:52:13;22.50;99.90
16408;DHT22;8313;49.894;8.084;2023-07-30T14:54:39;22.60;99.90
16408;DHT22;8313;49.894;8.084;2023-07-30T14:57:05;22.70;99.90
16408;DHT22;8313;49.894;8.084;2023-07-30T14:59:31;22.70;99.90
16408;DHT22;8313;49.894;8.084;2023-07-30T15:01:56;22.80;99.90
16408;DHT22;8313;49.894;8.084;2023-07-30T15:04:22;22.80;99.90
16408;DHT22;8313;49.894;8.084;2023-07-30T15:06:49;22.90;99.90
16408;DHT22;8313;49.894;8.084;2023-07-30T15:09:14;23.00;99.80
16408;DHT22;8313;49.894;8.084;2023-07-30T15:11:40;23.00;99.50
16408;DHT22;8313;49.894;8.084;2023-07-30T15:14:06;22.90;99.70
16408;DHT22;8313;49.894;8.084;2023-07-30T15:16:32;22.80;99.00
16408;DHT22;8313;49.894;8.084;2023-07-30T15:18:57;22.80;99.30
16408;DHT22;8313;49.894;8.084;2023-07-30T15:21:23;22.70;99.40
16408;DHT22;8313;49.894;8.084;2023-07-30T15:23:49;22.70;99.90
16408;DHT22;8313;49.894;8.084;2023-07-30T15:26:15;22.80;99.80
16408;DHT22;8313;49.894;8.084;2023-07-30T15:28:41;22.80;99.90
16408;DHT22;8313;49.894;8.084;2023-07-30T15:31:06;22.80;99.40
16408;DHT22;8313;49.894;8.084;2023-07-30T15:33:32;22.60;99.50
16408;DHT22;8313;49.894;8.084;2023-07-30T15:35:58;22.60;99.70
16408;DHT22;8313;49.894;8.084;2023-07-30T15:38:23;22.60;99.90
16408;DHT22;8313;49.894;8.084;2023-07-30T15:40:49;22.60;99.80
16408;DHT22;8313;49.894;8.084;2023-07-30T15:43:14;22.60;99.80